createdAt,value
2023-02-16T00:00:33.082Z,24.90
2023-02-16T00:02:59.195Z,24.90
2023-02-16T00:05:30.707Z,24.90
2023-02-16T00:07:58.315Z,24.90
2023-02-16T00:10:26.607Z,24.90
2023-02-16T00:13:11.875Z,24.90
2023-02-16T00:15:38.858Z,24.90
2023-02-16T00:18:21.282Z,24.90
2023-02-16T00:20:50.123Z,24.90
2023-02-16T00:23:16.321Z,24.90
2023-02-16T00:25:42.638Z,24.90
2023-02-16T00:28:15.852Z,24.90
2023-02-16T00:30:41.922Z,24.90
2023-02-16T00:33:16.453Z,24.90
2023-02-16T00:35:42.821Z,25.00
2023-02-16T00:38:08.881Z,24.90
2023-02-16T00:40:35.147Z,24.90
2023-02-16T00:43:01.273Z,25.00
2023-02-16T00:45:27.458Z,25.00
2023-02-16T00:47:54.141Z,24.90
2023-02-16T00:50:23.240Z,25.00
2023-02-16T00:52:49.731Z,25.00
2023-02-16T00:55:24.149Z,25.00
2023-02-16T00:58:11.274Z,25.00
2023-02-16T01:00:40.931Z,25.00
2023-02-16T01:03:21.541Z,25.00
2023-02-16T01:05:47.707Z,25.00
2023-02-16T01:08:35.175Z,25.00
2023-02-16T01:11:09.523Z,25.00
2023-02-16T01:13:44.136Z,25.00
2023-02-16T01:16:17.375Z,25.00
2023-02-16T01:18:44.339Z,25.00
2023-02-16T01:21:10.501Z,25.00
2023-02-16T01:23:38.145Z,25.00
2023-02-16T01:26:06.377Z,25.00
2023-02-16T01:28:38.602Z,25.00
2023-02-16T01:31:06.155Z,25.00
2023-02-16T01:33:32.552Z,25.00
2023-02-16T01:35:58.693Z,25.00
2023-02-16T01:38:27.883Z,25.00
2023-02-16T01:41:28.857Z,25.00
2023-02-16T01:44:04.788Z,25.00
2023-02-16T01:46:50.393Z,25.00
2023-02-16T01:49:18.742Z,25.00
2023-02-16T01:52:23.050Z,25.00
2023-02-16T01:55:09.864Z,25.00
2023-02-16T01:57:51.581Z,25.00
2023-02-16T02:00:50.826Z,25.00
2023-02-16T02:03:38.584Z,25.00
2023-02-16T02:06:13.662Z,25.00
2023-02-16T02:08:57.069Z,25.00
2023-02-16T02:11:29.684Z,25.00
2023-02-16T02:14:06.416Z,25.00
2023-02-16T02:16:32.631Z,25.00
2023-02-16T02:18:58.722Z,25.00
2023-02-16T02:22:04.663Z,25.00
2023-02-16T02:24:45.425Z,25.00
2023-02-16T02:27:24.087Z,25.00
2023-02-16T02:30:12.464Z,25.00
2023-02-16T02:33:11.587Z,25.00
2023-02-16T02:35:57.404Z,25.00
2023-02-16T02:39:09.591Z,25.00
2023-02-16T02:42:03.631Z,25.00
2023-02-16T02:44:33.698Z,25.00
2023-02-16T02:47:00.211Z,24.90
2023-02-16T02:49:26.276Z,25.00
2023-02-16T02:51:52.454Z,25.00
2023-02-16T02:54:42.986Z,25.00
2023-02-16T02:57:39.142Z,25.00
2023-02-16T03:00:37.098Z,25.00
2023-02-16T03:03:11.880Z,25.00
2023-02-16T03:05:43.473Z,25.00
2023-02-16T03:08:15.664Z,25.00
2023-02-16T03:11:05.121Z,25.00
2023-02-16T03:13:36.933Z,25.00
2023-02-16T03:16:12.736Z,25.00
2023-02-16T03:19:00.400Z,25.00
2023-02-16T03:21:47.271Z,25.00
2023-02-16T03:24:38.645Z,25.00
2023-02-16T03:27:26.004Z,25.00
2023-02-16T03:29:55.375Z,25.00
2023-02-16T03:32:21.504Z,25.00
2023-02-16T03:34:47.751Z,25.00
2023-02-16T03:37:14.680Z,25.00
2023-02-16T03:40:00.517Z,25.00
2023-02-16T03:42:26.666Z,25.00
2023-02-16T03:44:54.951Z,25.00
2023-02-16T03:47:21.032Z,25.00
2023-02-16T03:49:47.175Z,25.00
2023-02-16T03:52:13.261Z,25.10
2023-02-16T03:54:39.342Z,25.00
2023-02-16T03:57:05.576Z,25.00
2023-02-16T03:59:31.701Z,25.10
2023-02-16T04:01:58.750Z,25.10
2023-02-16T04:04:24.940Z,25.00
2023-02-16T04:06:51.061Z,25.00
2023-02-16T04:09:17.194Z,25.00
2023-02-16T04:12:02.019Z,25.00
2023-02-16T04:14:28.085Z,25.00
2023-02-16T04:16:55.426Z,25.00
2023-02-16T04:19:24.058Z,25.10
2023-02-16T04:21:52.276Z,25.10
2023-02-16T04:24:19.111Z,25.10
2023-02-16T04:26:45.269Z,25.10
2023-02-16T04:29:11.487Z,25.10
2023-02-16T04:31:37.652Z,25.10
2023-02-16T04:34:03.830Z,25.10
2023-02-16T04:36:30.907Z,25.10
2023-02-16T04:38:56.971Z,25.10
2023-02-16T04:41:23.023Z,25.10
2023-02-16T04:43:49.089Z,25.10
2023-02-16T04:46:15.182Z,25.10
2023-02-16T04:48:41.267Z,25.10
2023-02-16T04:51:07.339Z,25.00
2023-02-16T04:53:33.413Z,25.00
2023-02-16T04:55:59.453Z,25.00
2023-02-16T04:58:25.502Z,25.00
2023-02-16T05:00:51.660Z,25.00
2023-02-16T05:03:17.728Z,25.00
2023-02-16T05:05:44.104Z,25.00
2023-02-16T05:08:10.176Z,25.00
2023-02-16T05:10:36.278Z,25.10
2023-02-16T05:13:21.071Z,25.10
2023-02-16T05:15:47.232Z,25.10
2023-02-16T05:18:13.608Z,25.00
2023-02-16T05:20:58.107Z,25.10
2023-02-16T05:23:24.186Z,25.00
2023-02-16T05:25:50.312Z,25.10
2023-02-16T05:28:16.499Z,25.10
2023-02-16T05:30:42.689Z,25.10
2023-02-16T05:33:08.768Z,25.10
2023-02-16T05:35:34.920Z,25.10
2023-02-16T05:38:00.986Z,25.00
2023-02-16T05:40:27.057Z,25.00
2023-02-16T05:42:54.890Z,25.10
2023-02-16T05:45:21.136Z,25.10
2023-02-16T05:47:47.360Z,25.10
2023-02-16T05:50:13.468Z,25.10
2023-02-16T05:52:39.524Z,25.10
2023-02-16T05:55:06.298Z,25.10
2023-02-16T05:57:34.265Z,25.10
2023-02-16T06:00:00.592Z,25.10
2023-02-16T06:02:26.701Z,25.10
2023-02-16T06:04:52.780Z,25.00
2023-02-16T06:07:18.828Z,24.90
2023-02-16T06:09:44.868Z,24.90
2023-02-16T06:12:10.957Z,24.90
2023-02-16T06:14:36.999Z,24.90
2023-02-16T06:17:03.079Z,24.80
2023-02-16T06:19:29.145Z,24.80
2023-02-16T06:21:55.200Z,24.80
2023-02-16T06:24:21.272Z,24.80
2023-02-16T06:26:47.411Z,24.70
2023-02-16T06:29:13.520Z,24.70
2023-02-16T06:31:39.616Z,24.70
2023-02-16T06:34:06.044Z,24.70
2023-02-16T06:36:33.342Z,24.70
2023-02-16T06:38:59.472Z,24.70
2023-02-16T06:41:33.615Z,24.60
2023-02-16T06:44:01.307Z,24.60
2023-02-16T06:46:28.205Z,24.60
2023-02-16T06:48:54.304Z,24.60
2023-02-16T06:51:20.686Z,24.60
2023-02-16T06:53:46.965Z,24.60
2023-02-16T06:56:13.122Z,24.60
2023-02-16T06:58:39.175Z,24.60
2023-02-16T07:01:05.625Z,24.60
2023-02-16T07:03:31.926Z,24.60
2023-02-16T07:05:58.054Z,24.50
2023-02-16T07:08:24.199Z,24.60
2023-02-16T07:10:52.407Z,24.50
2023-02-16T07:13:19.400Z,24.50
2023-02-16T07:15:47.065Z,24.50
2023-02-16T07:18:13.174Z,24.50
2023-02-16T07:20:39.240Z,24.60
2023-02-16T07:23:06.091Z,24.50
2023-02-16T07:25:34.707Z,24.50
2023-02-16T07:28:03.158Z,24.50
2023-02-16T07:30:29.368Z,24.50
2023-02-16T07:32:55.592Z,24.50
2023-02-16T07:35:22.180Z,24.50
2023-02-16T07:37:48.406Z,24.50
2023-02-16T07:40:14.514Z,24.50
2023-02-16T07:42:40.573Z,24.50
2023-02-16T07:45:06.990Z,24.50
2023-02-16T07:47:33.061Z,24.50
2023-02-16T07:49:59.121Z,24.50
2023-02-16T07:52:30.395Z,24.40
2023-02-16T07:54:58.234Z,24.40
2023-02-16T07:57:25.827Z,24.40
2023-02-16T07:59:52.585Z,24.50
2023-02-16T08:02:19.813Z,24.50
2023-02-16T08:04:47.050Z,24.50
2023-02-16T08:07:13.949Z,24.50
2023-02-16T08:09:40.267Z,24.40
2023-02-16T08:12:10.685Z,24.40
2023-02-16T08:14:36.879Z,24.40
2023-02-16T08:17:05.675Z,24.40
2023-02-16T08:19:32.203Z,24.40
2023-02-16T08:21:59.980Z,24.40
2023-02-16T08:24:26.376Z,24.40
2023-02-16T08:26:53.217Z,24.40
2023-02-16T08:29:20.207Z,24.40
2023-02-16T08:31:47.381Z,24.40
2023-02-16T08:34:16.717Z,24.40
2023-02-16T08:36:44.634Z,24.40
2023-02-16T08:39:19.170Z,24.40
2023-02-16T08:41:47.664Z,24.40
2023-02-16T08:44:15.498Z,24.40
2023-02-16T08:46:43.543Z,24.40
2023-02-16T08:49:11.115Z,24.40
2023-02-16T08:51:42.009Z,24.40
2023-02-16T08:54:09.424Z,24.40
2023-02-16T08:56:35.797Z,24.40
2023-02-16T08:59:02.109Z,24.40
2023-02-16T09:01:28.270Z,24.40
2023-02-16T09:03:54.616Z,24.40
2023-02-16T09:06:21.928Z,24.40
2023-02-16T09:08:52.855Z,24.40
2023-02-16T09:11:19.981Z,24.40
2023-02-16T09:13:46.802Z,24.40
2023-02-16T09:16:18.306Z,24.40
2023-02-16T09:18:44.931Z,24.40
2023-02-16T09:21:18.821Z,24.40
2023-02-16T09:23:47.570Z,24.40
2023-02-16T09:26:15.932Z,24.40
2023-02-16T09:28:42.742Z,24.40
2023-02-16T09:31:10.988Z,24.40
2023-02-16T09:33:38.060Z,24.40
2023-02-16T09:36:09.492Z,24.40
2023-02-16T09:38:37.116Z,24.40
2023-02-16T09:41:31.883Z,24.40
2023-02-16T09:44:09.390Z,24.40
2023-02-16T09:46:37.045Z,24.40
2023-02-16T09:49:04.326Z,24.40
2023-02-16T09:51:36.753Z,24.40
2023-02-16T09:54:34.196Z,24.40
2023-02-16T09:57:31.445Z,24.40
2023-02-16T10:00:23.334Z,24.30
2023-02-16T10:03:18.878Z,24.30
2023-02-16T10:05:58.037Z,24.30
2023-02-16T10:08:29.472Z,24.40
2023-02-16T10:11:37.499Z,24.30
2023-02-16T10:14:21.413Z,24.30
2023-02-16T10:17:46.305Z,24.30
2023-02-16T10:20:26.113Z,24.30
2023-02-16T10:23:20.897Z,24.30
2023-02-16T10:26:00.144Z,24.30
2023-02-16T10:28:32.482Z,24.30
2023-02-16T10:31:17.229Z,24.30
2023-02-16T10:33:46.071Z,24.30
2023-02-16T10:36:29.025Z,24.30
2023-02-16T10:39:17.684Z,24.30
2023-02-16T10:42:41.573Z,24.30
2023-02-16T10:45:13.632Z,24.30
2023-02-16T10:47:42.192Z,24.30
2023-02-16T10:50:24.579Z,24.30
2023-02-16T10:52:55.343Z,24.30
2023-02-16T10:55:21.483Z,24.30
2023-02-16T10:57:57.665Z,24.30
2023-02-16T11:00:42.326Z,24.30
2023-02-16T11:03:12.493Z,24.30
2023-02-16T11:05:40.672Z,24.30
2023-02-16T11:08:10.588Z,24.30
2023-02-16T11:10:48.294Z,24.30
2023-02-16T11:13:27.290Z,24.30
2023-02-16T11:15:59.827Z,24.30
2023-02-16T11:18:36.604Z,24.30
2023-02-16T11:21:03.905Z,24.30
2023-02-16T11:23:57.579Z,24.20
2023-02-16T11:26:25.491Z,24.20
2023-02-16T11:28:53.337Z,24.20
2023-02-16T11:31:39.664Z,24.30
2023-02-16T11:34:13.056Z,24.30
2023-02-16T11:36:46.686Z,24.20
2023-02-16T11:39:22.422Z,24.20
2023-02-16T11:42:01.136Z,24.20
2023-02-16T11:44:37.295Z,24.20
2023-02-16T11:47:22.673Z,24.30
2023-02-16T11:50:03.845Z,24.30
2023-02-16T11:52:31.915Z,24.30
2023-02-16T11:55:00.104Z,24.30
2023-02-16T11:57:31.816Z,24.20
2023-02-16T11:59:59.572Z,24.20
2023-02-16T12:02:42.046Z,24.20
2023-02-16T12:05:17.237Z,24.20
2023-02-16T12:08:09.023Z,24.20
2023-02-16T12:11:02.613Z,24.20
2023-02-16T12:13:49.235Z,24.20
2023-02-16T12:16:24.245Z,24.20
2023-02-16T12:19:24.486Z,24.20
2023-02-16T12:21:57.604Z,24.20
2023-02-16T12:24:49.565Z,24.20
2023-02-16T12:27:28.753Z,24.20
2023-02-16T12:30:19.506Z,24.20
2023-02-16T12:33:07.241Z,24.20
2023-02-16T12:35:41.343Z,24.20
2023-02-16T12:38:07.902Z,24.20
2023-02-16T12:40:58.334Z,24.20
2023-02-16T12:43:42.177Z,24.20
2023-02-16T12:46:30.301Z,24.20
2023-02-16T12:49:29.400Z,24.20
2023-02-16T12:52:09.578Z,24.20
2023-02-16T12:55:10.314Z,24.20
2023-02-16T12:57:45.688Z,24.20
2023-02-16T13:00:25.309Z,24.20
2023-02-16T13:03:22.109Z,24.10
2023-02-16T13:05:56.602Z,24.20
2023-02-16T13:09:00.606Z,24.20
2023-02-16T13:11:38.182Z,24.20
2023-02-16T13:14:16.777Z,24.20
2023-02-16T13:16:47.635Z,24.20
2023-02-16T13:19:15.802Z,24.20
2023-02-16T13:22:00.200Z,24.20
2023-02-16T13:24:52.864Z,24.20
2023-02-16T13:27:29.868Z,24.20
2023-02-16T13:30:15.099Z,24.20
2023-02-16T13:33:00.595Z,24.20
2023-02-16T13:35:52.373Z,24.20
2023-02-16T13:38:43.729Z,24.20
2023-02-16T13:41:37.775Z,24.20
2023-02-16T13:44:11.703Z,24.20
2023-02-16T13:46:51.860Z,24.20
2023-02-16T13:49:42.298Z,24.20
2023-02-16T13:52:28.079Z,24.20
2023-02-16T13:54:54.376Z,24.20
2023-02-16T13:57:53.465Z,24.20
2023-02-16T14:00:31.557Z,24.20
2023-02-16T14:03:05.234Z,24.20
2023-02-16T14:05:34.828Z,24.20
2023-02-16T14:08:20.482Z,24.20
2023-02-16T14:10:52.768Z,24.20
2023-02-16T14:13:30.542Z,24.20
2023-02-16T14:16:05.702Z,24.20
2023-02-16T14:18:55.147Z,24.20
2023-02-16T14:21:36.627Z,24.20
2023-02-16T14:24:05.712Z,24.20
2023-02-16T14:26:51.633Z,24.10
2023-02-16T14:29:22.967Z,24.20
2023-02-16T14:32:13.072Z,24.20
2023-02-16T14:34:45.932Z,24.20
2023-02-16T14:37:15.482Z,24.20
2023-02-16T14:40:06.495Z,24.20
2023-02-16T14:42:33.649Z,24.20
2023-02-16T14:45:02.867Z,24.10
2023-02-16T14:47:48.066Z,24.10
2023-02-16T14:50:33.322Z,24.20
2023-02-16T14:53:29.106Z,24.20
2023-02-16T14:56:30.873Z,24.10
2023-02-16T14:59:21.112Z,24.20
2023-02-16T15:01:47.350Z,24.10
2023-02-16T15:04:27.600Z,24.10
2023-02-16T15:06:55.860Z,24.10
2023-02-16T15:09:34.327Z,24.10
2023-02-16T15:12:23.465Z,24.10
2023-02-16T15:14:51.857Z,24.10
2023-02-16T15:17:38.383Z,24.10
2023-02-16T15:20:31.632Z,24.10
2023-02-16T15:23:03.478Z,24.10
2023-02-16T15:25:33.169Z,24.10
2023-02-16T15:28:14.943Z,24.10
2023-02-16T15:30:46.320Z,24.10
2023-02-16T15:33:27.670Z,24.10
2023-02-16T15:35:56.225Z,24.10
2023-02-16T15:38:24.913Z,24.10
2023-02-16T15:40:56.035Z,24.20
2023-02-16T15:43:46.884Z,24.10
2023-02-16T15:46:28.074Z,24.10
2023-02-16T15:48:54.346Z,24.10
2023-02-16T15:51:26.120Z,24.10
2023-02-16T15:53:56.685Z,24.10
2023-02-16T15:56:36.445Z,24.10
2023-02-16T15:59:28.408Z,24.10
2023-02-16T16:02:17.842Z,24.00
2023-02-16T16:04:54.828Z,24.10
2023-02-16T16:07:40.995Z,24.00
2023-02-16T16:10:20.793Z,24.00
2023-02-16T16:12:48.768Z,24.00
2023-02-16T16:15:22.223Z,24.00
2023-02-16T16:17:50.209Z,24.00
2023-02-16T16:20:40.935Z,24.00
2023-02-16T16:23:26.336Z,24.00
2023-02-16T16:25:52.784Z,24.00
2023-02-16T16:28:28.059Z,24.00
2023-02-16T16:31:11.393Z,24.00
2023-02-16T16:33:54.209Z,24.00
2023-02-16T16:36:27.396Z,24.00
2023-02-16T16:39:08.393Z,24.00
2023-02-16T16:41:34.565Z,24.00
2023-02-16T16:44:00.681Z,24.00
2023-02-16T16:46:29.073Z,24.00
2023-02-16T16:49:00.150Z,24.00
2023-02-16T16:51:27.066Z,24.00
2023-02-16T16:54:03.319Z,24.00
2023-02-16T16:56:31.324Z,24.00
2023-02-16T16:58:58.542Z,24.00
2023-02-16T17:01:26.816Z,24.00
2023-02-16T17:03:53.170Z,24.00
2023-02-16T17:06:20.049Z,24.00
2023-02-16T17:08:46.421Z,24.00
2023-02-16T17:11:31.603Z,24.00
2023-02-16T17:14:17.840Z,24.00
2023-02-16T17:16:46.641Z,24.00
2023-02-16T17:19:17.688Z,24.00
2023-02-16T17:21:45.320Z,24.00
2023-02-16T17:24:11.490Z,24.00
2023-02-16T17:26:37.792Z,24.00
2023-02-16T17:29:04.612Z,24.00
2023-02-16T17:31:30.802Z,24.00
2023-02-16T17:33:57.067Z,24.00
2023-02-16T17:36:25.532Z,24.00
2023-02-16T17:38:51.739Z,24.00
2023-02-16T17:41:21.725Z,24.00
2023-02-16T17:43:48.512Z,24.00
2023-02-16T17:46:15.291Z,24.00
2023-02-16T17:48:41.521Z,24.00
2023-02-16T17:51:18.708Z,24.00
2023-02-16T17:53:44.987Z,24.00
2023-02-16T17:56:13.465Z,24.00
2023-02-16T17:58:39.709Z,24.00
2023-02-16T18:01:06.042Z,24.10
2023-02-16T18:03:32.277Z,24.10
2023-02-16T18:05:58.587Z,24.10
2023-02-16T18:08:24.645Z,24.20
2023-02-16T18:10:52.803Z,24.20
2023-02-16T18:13:19.601Z,24.20
2023-02-16T18:15:47.980Z,24.20
2023-02-16T18:18:16.283Z,24.20
2023-02-16T18:20:43.221Z,24.30
2023-02-16T18:23:09.772Z,24.30
2023-02-16T18:25:36.241Z,24.30
2023-02-16T18:28:02.558Z,24.30
2023-02-16T18:30:28.841Z,24.30
2023-02-16T18:32:55.081Z,24.40
2023-02-16T18:35:21.515Z,24.40
2023-02-16T18:37:47.800Z,24.40
2023-02-16T18:40:19.187Z,24.40
2023-02-16T18:42:46.516Z,24.40
2023-02-16T18:45:12.605Z,24.40
2023-02-16T18:47:38.715Z,24.40
2023-02-16T18:50:05.633Z,24.40
2023-02-16T18:52:31.770Z,24.50
2023-02-16T18:54:57.860Z,24.40
2023-02-16T18:57:24.936Z,24.40
2023-02-16T18:59:50.995Z,24.40
2023-02-16T19:02:17.085Z,24.50
2023-02-16T19:04:43.163Z,24.50
2023-02-16T19:07:09.242Z,24.50
2023-02-16T19:09:35.510Z,24.50
2023-02-16T19:12:01.625Z,24.50
2023-02-16T19:14:27.724Z,24.50
2023-02-16T19:16:53.786Z,24.50
2023-02-16T19:19:19.924Z,24.50
2023-02-16T19:21:45.988Z,24.50
2023-02-16T19:24:12.274Z,24.50
2023-02-16T19:26:39.439Z,24.60
2023-02-16T19:29:06.069Z,24.60
2023-02-16T19:31:32.442Z,24.60
2023-02-16T19:33:59.343Z,24.60
2023-02-16T19:36:27.025Z,24.60
2023-02-16T19:38:53.182Z,24.60
2023-02-16T19:41:23.044Z,24.60
2023-02-16T19:43:49.554Z,24.60
2023-02-16T19:46:15.724Z,24.60
2023-02-16T19:48:42.167Z,24.60
2023-02-16T19:51:09.263Z,24.60
2023-02-16T19:53:37.040Z,24.60
2023-02-16T19:56:08.711Z,24.60
2023-02-16T19:58:35.051Z,24.60
2023-02-16T20:01:10.077Z,24.60
2023-02-16T20:03:36.545Z,24.60
2023-02-16T20:06:33.151Z,24.60
2023-02-16T20:09:00.272Z,24.60
2023-02-16T20:11:28.283Z,24.60
2023-02-16T20:13:55.695Z,24.60
2023-02-16T20:16:22.427Z,24.60
2023-02-16T20:18:49.033Z,24.60
2023-02-16T20:21:24.087Z,24.60
2023-02-16T20:23:53.398Z,24.60
2023-02-16T20:26:24.090Z,24.60
2023-02-16T20:28:51.318Z,24.60
2023-02-16T20:31:23.276Z,24.60
2023-02-16T20:33:49.689Z,24.60
2023-02-16T20:36:16.213Z,24.70
2023-02-16T20:38:42.321Z,24.60
2023-02-16T20:41:08.446Z,24.70
2023-02-16T20:43:35.534Z,24.60
2023-02-16T20:46:04.959Z,24.70
2023-02-16T20:48:32.086Z,24.70
2023-02-16T20:51:00.763Z,24.70
2023-02-16T20:53:28.132Z,24.70
2023-02-16T20:56:23.530Z,24.70
2023-02-16T20:58:51.671Z,24.70
2023-02-16T21:01:27.772Z,24.70
2023-02-16T21:03:55.958Z,24.70
2023-02-16T21:06:23.070Z,24.70
2023-02-16T21:08:49.190Z,24.70
2023-02-16T21:11:15.836Z,24.70
2023-02-16T21:13:42.206Z,24.70
2023-02-16T21:16:09.187Z,24.60
2023-02-16T21:18:37.277Z,24.70
2023-02-16T21:21:06.880Z,24.70
2023-02-16T21:23:33.926Z,24.70
2023-02-16T21:26:02.415Z,24.70
2023-02-16T21:28:28.831Z,24.70
2023-02-16T21:30:55.505Z,24.70
2023-02-16T21:33:22.175Z,24.70
2023-02-16T21:35:48.274Z,24.70
2023-02-16T21:38:14.533Z,24.70
2023-02-16T21:40:59.193Z,24.70
2023-02-16T21:43:25.304Z,24.70
2023-02-16T21:46:01.092Z,24.70
2023-02-16T21:48:49.377Z,24.70
2023-02-16T21:51:24.623Z,24.70
2023-02-16T21:53:51.198Z,24.70
2023-02-16T21:56:37.334Z,24.70
2023-02-16T21:59:05.175Z,24.70
2023-02-16T22:01:34.369Z,24.70
2023-02-16T22:04:01.301Z,24.70
2023-02-16T22:06:31.536Z,24.70
2023-02-16T22:08:59.034Z,24.70
2023-02-16T22:11:25.344Z,24.70
2023-02-16T22:13:59.190Z,24.70
2023-02-16T22:16:27.168Z,24.70
2023-02-16T22:18:57.848Z,24.70
2023-02-16T22:21:24.706Z,24.70
2023-02-16T22:23:50.952Z,24.70
2023-02-16T22:26:23.983Z,24.70
2023-02-16T22:28:50.220Z,24.70
2023-02-16T22:31:18.720Z,24.70
2023-02-16T22:33:45.045Z,24.70
2023-02-16T22:36:13.409Z,24.70
2023-02-16T22:38:41.763Z,24.70
2023-02-16T22:41:09.735Z,24.70
2023-02-16T22:43:36.500Z,24.70
2023-02-16T22:46:07.966Z,24.70
2023-02-16T22:48:35.450Z,24.70
2023-02-16T22:51:04.699Z,24.80
2023-02-16T22:53:31.689Z,24.80
2023-02-16T22:55:57.757Z,24.80
2023-02-16T22:58:23.936Z,24.80
2023-02-16T23:00:50.492Z,24.80
2023-02-16T23:03:17.339Z,24.80
2023-02-16T23:05:43.582Z,24.80
2023-02-16T23:08:11.022Z,24.80
2023-02-16T23:10:38.990Z,24.80
2023-02-16T23:13:07.296Z,24.80
2023-02-16T23:15:36.566Z,24.80
2023-02-16T23:18:02.825Z,24.80
2023-02-16T23:20:29.072Z,24.80
2023-02-16T23:22:55.137Z,24.80
2023-02-16T23:25:33.354Z,24.80
2023-02-16T23:28:03.648Z,24.80
2023-02-16T23:30:30.267Z,24.80
2023-02-16T23:32:56.848Z,24.80
2023-02-16T23:35:22.947Z,24.80
2023-02-16T23:37:49.073Z,24.80
2023-02-16T23:40:15.149Z,24.80
2023-02-16T23:42:41.188Z,24.80
2023-02-16T23:45:07.675Z,24.80
2023-02-16T23:47:33.723Z,24.80
2023-02-16T23:49:59.764Z,24.80
2023-02-16T23:52:25.808Z,24.80
2023-02-16T23:54:51.921Z,24.80
2023-02-16T23:57:17.987Z,24.80
2023-02-16T23:59:44.052Z,24.80
